Time;durP1;ratioP1;P1;durP2;ratioP2;P2;SDS_P1;SDS_P2;PMS_P1;PMS_P2;Temp;Humidity;BMP_temperature;BMP_pressure;BME280_temperature;BME280_humidity;BME280_pressure;Samples;Min_cycle;Max_cycle;Signal;HPM_P1;HPM_P2
2023/08/15 00:00:01;;;;;;;1.73;1.50;;;;;;;23.86;nan;99297.38;335893;28;4588;-61
2023/08/15 00:00:14;;;;;;;1.92;1.52;;;;;;;23.84;84.82;99292.19;337388;28;5469;-61
2023/08/15 00:00:27;;;;;;;2.28;1.60;;;;;;;23.84;84.98;99292.19;334197;28;18608;-61
2023/08/15 00:00:39;;;;;;;2.35;1.52;;;;;;;23.85;84.86;99285.09;334253;28;5136;-61
2023/08/15 00:00:51;;;;;;;1.95;1.40;;;;;;;23.85;84.84;99293.88;336116;28;18173;-61
2023/08/15 00:01:03;;;;;;;2.30;1.60;;;;;;;23.86;84.99;99284.09;336937;28;5208;-61
2023/08/15 00:01:15;;;;;;;2.65;1.75;;;;;;;23.84;85.19;99286.88;334069;28;16659;-61
2023/08/15 00:01:27;;;;;;;1.90;1.50;;;;;;;23.85;85.04;99282.44;337151;28;5532;-61
2023/08/15 00:01:39;;;;;;;1.80;1.50;;;;;;;23.85;84.87;99285.94;336797;28;4638;-61
2023/08/15 00:01:51;;;;;;;1.50;1.30;;;;;;;23.86;84.89;99284.09;334831;28;18308;-61
2023/08/15 00:02:03;;;;;;;1.75;1.45;;;;;;;23.84;84.88;99284.25;338042;28;4619;-61
2023/08/15 00:02:15;;;;;;;2.75;1.75;;;;;;;23.84;85.00;99278.94;334597;28;10306;-60
2023/08/15 00:02:27;;;;;;;2.78;1.75;;;;;;;23.84;85.23;99286.88;337506;28;4766;-61
2023/08/15 00:02:39;;;;;;;4.32;1.90;;;;;;;23.84;85.14;99291.38;334145;28;11932;-61
2023/08/15 00:02:51;;;;;;;3.85;1.88;;;;;;;23.83;84.96;99281.75;336550;28;4625;-61
2023/08/15 00:03:04;;;;;;;2.30;1.80;;;;;;;23.82;85.13;99275.59;336813;28;5453;-61
2023/08/15 00:03:16;;;;;;;2.50;1.60;;;;;;;23.81;85.44;99273.94;335049;28;18292;-62
2023/08/15 00:03:29;;;;;;;2.20;1.45;;;;;;;23.83;85.07;99279.09;336011;28;5064;-62
2023/08/15 00:03:41;;;;;;;1.67;1.33;;;;;;;23.80;85.33;99280.19;335509;28;5193;-62
2023/08/15 00:03:53;;;;;;;1.77;1.48;;;;;;;23.82;85.29;99285.38;337498;28;4640;-62
2023/08/15 00:04:05;;;;;;;2.03;1.60;;;;;;;23.83;85.22;99287.06;336350;28;5172;-62
2023/08/15 00:04:17;;;;;;;1.90;1.50;;;;;;;23.84;85.23;99286.88;336050;28;18065;-62
2023/08/15 00:04:31;;;;;;;2.63;1.60;;;;;;;23.84;85.23;99281.59;338329;28;4758;-62
2023/08/15 00:04:43;;;;;;;4.40;1.50;;;;;;;23.86;84.96;99276.13;335528;28;17717;-62
2023/08/15 00:04:56;;;;;;;3.85;1.50;;;;;;;23.85;85.26;99275.31;338597;28;12991;-62
2023/08/15 00:05:08;;;;;;;3.67;1.60;;;;;;;23.87;85.47;99273.34;335969;28;17995;-62
2023/08/15 00:05:20;;;;;;;2.08;1.60;;;;;;;23.88;85.31;99280.31;337520;28;4691;-62
2023/08/15 00:05:32;;;;;;;1.90;1.67;;;;;;;23.89;85.33;99276.69;334562;28;18191;-62
2023/08/15 00:05:44;;;;;;;1.85;1.60;;;;;;;23.89;85.16;99282.00;337472;28;4620;-62
2023/08/15 00:05:56;;;;;;;1.75;1.63;;;;;;;23.90;85.01;99283.69;337531;28;5173;-62
2023/08/15 00:06:08;;;;;;;2.13;1.75;;;;;;;23.91;85.02;99272.06;335085;28;19055;-62
2023/08/15 00:06:20;;;;;;;1.98;1.73;;;;;;;23.92;85.10;99281.72;337155;28;5191;-62
2023/08/15 00:06:32;;;;;;;2.38;1.48;;;;;;;23.92;85.04;99276.41;334081;28;18207;-62
2023/08/15 00:06:44;;;;;;;2.47;1.50;;;;;;;23.92;85.34;99279.06;336297;28;4725;-62
2023/08/15 00:06:56;;;;;;;1.80;1.52;;;;;;;23.93;85.22;99280.72;336414;28;12116;-62
2023/08/15 00:07:09;;;;;;;1.77;1.60;;;;;;;23.95;84.97;99274.44;330971;28;18861;-62
2023/08/15 00:07:21;;;;;;;1.95;1.60;;;;;;;23.96;85.01;99270.81;336389;28;4580;-62
2023/08/15 00:07:33;;;;;;;2.15;1.67;;;;;;;23.97;84.98;99283.09;335430;28;16915;-61
2023/08/15 00:07:45;;;;;;;1.58;1.42;;;;;;;23.96;85.34;99276.13;339226;28;6641;-61
2023/08/15 00:07:57;;;;;;;1.80;1.50;;;;;;;23.96;85.44;99274.28;335596;28;5414;-61
2023/08/15 00:08:09;;;;;;;1.90;1.50;;;;;;;23.94;85.70;99276.25;332797;28;4546;-61
2023/08/15 00:08:21;;;;;;;2.33;1.60;;;;;;;23.95;85.62;99277.13;335602;28;5064;-62
2023/08/15 00:08:33;;;;;;;2.50;1.70;;;;;;;23.96;85.72;99276.94;334156;28;4731;-62
2023/08/15 00:08:48;;;;;;;2.30;1.70;;;;;;;23.97;85.56;99273.31;336438;28;4660;-61
2023/08/15 00:09:00;;;;;;;2.25;1.70;;;;;;;23.98;85.49;99274.16;334403;28;18115;-61
2023/08/15 00:09:12;;;;;;;2.15;1.52;;;;;;;23.98;85.57;99274.16;336961;28;4582;-62
2023/08/15 00:09:24;;;;;;;2.05;1.40;;;;;;;23.98;85.69;99282.13;330642;28;17987;-62
2023/08/15 00:09:36;;;;;;;2.17;1.50;;;;;;;23.98;85.86;99279.47;338825;28;5156;-61
2023/08/15 00:09:48;;;;;;;1.83;1.60;;;;;;;23.98;85.72;99274.97;335615;28;12014;-61
2023/08/15 00:10:01;;;;;;;1.85;1.63;;;;;;;23.99;85.82;99279.31;337549;28;4615;-62
2023/08/15 00:10:12;;;;;;;3.05;1.50;;;;;;;23.99;85.57;99278.50;334583;28;5174;-62
2023/08/15 00:10:24;;;;;;;2.97;1.40;;;;;;;24.00;85.43;99277.50;337016;28;5238;-61
2023/08/15 00:10:37;;;;;;;2.33;1.50;;;;;;;24.02;85.40;99275.53;336477;28;4553;-62
2023/08/15 00:10:49;;;;;;;1.60;1.40;;;;;;;24.03;85.16;99277.22;334085;28;18185;-62
2023/08/15 00:11:00;;;;;;;1.88;1.45;;;;;;;24.02;85.21;99271.03;332217;28;4779;-62
2023/08/15 00:11:12;;;;;;;2.00;1.52;;;;;;;24.04;85.15;99273.56;336717;28;4737;-62
2023/08/15 00:11:24;;;;;;;1.90;1.60;;;;;;;24.04;85.00;99274.41;330991;28;18042;-62
2023/08/15 00:11:36;;;;;;;2.40;1.60;;;;;;;24.04;85.01;99274.41;338179;28;4634;-62
2023/08/15 00:11:48;;;;;;;2.38;1.50;;;;;;;24.05;85.05;99267.28;335383;28;5792;-62
2023/08/15 00:12:01;;;;;;;2.47;1.50;;;;;;;24.05;84.95;99269.94;338151;28;5025;-62
2023/08/15 00:12:13;;;;;;;2.10;1.40;;;;;;;24.05;85.05;99269.94;337344;28;4674;-62
2023/08/15 00:12:25;;;;;;;1.90;1.40;;;;;;;24.05;85.08;99275.25;329824;28;17968;-62
2023/08/15 00:12:37;;;;;;;1.70;1.45;;;;;;;24.03;84.89;99269.25;336862;28;4546;-61
2023/08/15 00:12:49;;;;;;;1.70;1.50;;;;;;;24.04;84.84;99263.78;335549;28;5395;-62
2023/08/15 00:13:03;;;;;;;1.52;1.42;;;;;;;24.04;85.03;99270.91;336785;28;4589;-61
2023/08/15 00:13:15;;;;;;;1.80;1.50;;;;;;;24.03;85.10;99264.78;334271;28;17931;-62
2023/08/15 00:13:27;;;;;;;1.80;1.50;;;;;;;24.03;84.86;99271.91;337096;28;4589;-62
2023/08/15 00:13:39;;;;;;;2.25;1.50;;;;;;;24.01;84.92;99264.09;335681;28;12059;-62
2023/08/15 00:13:55;;;;;;;1.95;1.58;;;;;;;24.02;84.80;99270.22;333127;28;18419;-62
2023/08/15 00:14:07;;;;;;;1.80;1.63;;;;;;;24.01;84.67;99269.38;333618;28;18896;-62
2023/08/15 00:14:19;;;;;;;1.80;1.58;;;;;;;24.01;84.73;99263.25;334556;28;5439;-62
2023/08/15 00:14:32;;;;;;;1.95;1.60;;;;;;;24.01;84.93;99265.91;336426;28;5134;-62
2023/08/15 00:14:44;;;;;;;1.80;1.60;;;;;;;23.97;85.16;99261.88;336446;28;4731;-62
2023/08/15 00:14:56;;;;;;;1.90;1.70;;;;;;;23.96;84.87;99265.50;334494;28;16706;-61
2023/08/15 00:15:09;;;;;;;1.90;1.60;;;;;;;23.98;84.81;99264.34;337607;28;4724;-62
2023/08/15 00:15:21;;;;;;;1.90;1.65;;;;;;;23.99;84.70;99265.22;334894;28;18096;-62
2023/08/15 00:15:34;;;;;;;2.38;1.50;;;;;;;23.97;84.64;99256.56;336471;28;4751;-62
2023/08/15 00:15:47;;;;;;;3.25;1.58;;;;;;;23.97;84.68;99272.50;333506;28;18187;-62
2023/08/15 00:15:58;;;;;;;3.50;1.60;;;;;;;23.94;84.85;99257.66;336522;28;5300;-62
2023/08/15 00:16:10;;;;;;;2.60;1.50;;;;;;;23.93;84.77;99264.81;332655;28;5383;-62
2023/08/15 00:16:23;;;;;;;2.53;1.50;;;;;;;23.92;85.01;99265.81;334606;28;19162;-62
2023/08/15 00:16:35;;;;;;;1.75;1.40;;;;;;;23.89;85.25;99265.25;336874;28;6425;-62
2023/08/15 00:16:47;;;;;;;2.35;1.52;;;;;;;23.88;85.43;99264.38;335018;28;18285;-62
2023/08/15 00:16:59;;;;;;;2.33;1.60;;;;;;;23.85;85.40;99270.00;337733;28;4488;-61
2023/08/15 00:17:12;;;;;;;4.40;1.60;;;;;;;23.86;85.24;99266.34;332771;28;4691;-62
2023/08/15 00:17:24;;;;;;;4.20;1.50;;;;;;;23.86;85.42;99266.34;334253;28;18319;-62
2023/08/15 00:17:36;;;;;;;3.00;1.40;;;;;;;23.87;85.33;99261.91;336496;28;5345;-61
2023/08/15 00:17:48;;;;;;;2.28;1.42;;;;;;;23.87;85.37;99262.72;334269;28;19053;-61
2023/08/15 00:18:00;;;;;;;1.50;1.40;;;;;;;23.88;85.11;99261.72;336542;28;4668;-62
2023/08/15 00:18:12;;;;;;;1.67;1.50;;;;;;;23.90;84.99;99266.91;334589;28;5403;-61
2023/08/15 00:18:25;;;;;;;1.50;1.40;;;;;;;23.91;85.05;99263.28;336830;28;5311;-62
2023/08/15 00:18:37;;;;;;;1.50;1.38;;;;;;;23.92;84.94;99260.50;335098;28;4969;-62
2023/08/15 00:18:49;;;;;;;1.50;1.38;;;;;;;23.94;84.62;99262.97;337388;28;4958;-62
2023/08/15 00:19:02;;;;;;;1.42;1.33;;;;;;;23.93;84.55;99270.13;337695;28;4592;-61
2023/08/15 00:19:14;;;;;;;1.40;1.30;;;;;;;23.93;84.62;99264.81;335202;28;18188;-62
2023/08/15 00:19:26;;;;;;;1.77;1.27;;;;;;;23.93;84.53;99261.31;336774;28;5466;-62
2023/08/15 00:19:39;;;;;;;1.83;1.40;;;;;;;23.92;84.38;99262.28;334083;28;18006;-62
2023/08/15 00:19:51;;;;;;;1.60;1.40;;;;;;;23.90;84.46;99273.06;337337;28;4657;-62
2023/08/15 00:20:03;;;;;;;1.52;1.40;;;;;;;23.90;84.54;99262.47;333652;28;19150;-62
2023/08/15 00:20:15;;;;;;;1.43;1.30;;;;;;;23.90;84.60;99269.56;335137;28;17586;-62
2023/08/15 00:20:27;;;;;;;1.40;1.30;;;;;;;23.89;84.51;99266.06;330396;28;5881;-61
2023/08/15 00:20:39;;;;;;;1.60;1.40;;;;;;;23.89;84.42;99263.41;337000;28;5445;-62
2023/08/15 00:20:51;;;;;;;1.60;1.40;;;;;;;23.89;84.46;99270.56;338030;28;4493;-61
2023/08/15 00:21:03;;;;;;;2.38;1.45;;;;;;;23.87;84.42;99262.72;335391;28;11612;-61
2023/08/15 00:21:15;;;;;;;3.45;1.52;;;;;;;23.88;84.45;99268.88;337230;28;4795;-62
2023/08/15 00:21:28;;;;;;;4.07;1.80;;;;;;;23.86;84.36;99266.34;334735;28;5223;-62
2023/08/15 00:21:39;;;;;;;3.33;1.67;;;;;;;23.85;84.21;99267.34;337256;28;4860;-61
2023/08/15 00:21:51;;;;;;;1.98;1.58;;;;;;;23.84;84.25;99265.66;338093;28;4486;-62
2023/08/15 00:22:04;;;;;;;1.90;1.45;;;;;;;23.82;84.40;99264.97;335752;28;4643;-62
2023/08/15 00:22:17;;;;;;;1.55;1.30;;;;;;;23.80;84.84;99266.94;337037;28;4591;-61
2023/08/15 00:22:29;;;;;;;1.40;1.30;;;;;;;23.76;84.95;99265.50;334250;28;17887;-62
2023/08/15 00:22:41;;;;;;;1.52;1.42;;;;;;;23.78;85.02;99262.75;337779;28;4700;-61
2023/08/15 00:22:53;;;;;;;1.55;1.40;;;;;;;23.77;84.86;99267.22;335454;28;12519;-62
2023/08/15 00:23:05;;;;;;;1.80;1.50;;;;;;;23.77;84.72;99271.69;333387;28;4750;-62
2023/08/15 00:23:18;;;;;;;1.90;1.50;;;;;;;23.75;84.70;99263.84;337444;28;4584;-62
2023/08/15 00:23:29;;;;;;;1.63;1.45;;;;;;;23.75;84.85;99269.16;334577;28;18263;-62
2023/08/15 00:23:41;;;;;;;1.73;1.50;;;;;;;23.73;85.39;99271.97;337519;28;4529;-62
2023/08/15 00:23:54;;;;;;;1.75;1.48;;;;;;;23.73;85.08;99265.81;334565;28;5190;-62
2023/08/15 00:24:06;;;;;;;1.85;1.50;;;;;;;23.71;84.92;99267.78;335862;28;17371;-62
2023/08/15 00:24:18;;;;;;;1.60;1.50;;;;;;;23.71;84.90;99265.13;337747;28;4747;-61
2023/08/15 00:24:30;;;;;;;1.48;1.38;;;;;;;23.71;85.06;99262.47;334210;28;16209;-62
2023/08/15 00:24:42;;;;;;;1.40;1.30;;;;;;;23.69;84.92;99264.44;337502;28;4661;-62
2023/08/15 00:24:54;;;;;;;1.40;1.30;;;;;;;23.69;84.98;99264.44;337226;28;5304;-62
2023/08/15 00:25:06;;;;;;;1.88;1.30;;;;;;;23.67;84.91;99267.22;334371;28;17995;-62
2023/08/15 00:25:18;;;;;;;2.70;1.40;;;;;;;23.66;85.04;99265.56;336657;28;5530;-61
2023/08/15 00:25:30;;;;;;;2.75;1.40;;;;;;;23.66;84.85;99265.56;333740;28;18292;-61
2023/08/15 00:25:42;;;;;;;2.85;1.50;;;;;;;23.65;84.56;99263.06;336643;28;6025;-61
2023/08/15 00:25:54;;;;;;;3.17;1.70;;;;;;;23.64;84.47;99269.31;337073;28;4653;-61
2023/08/15 00:26:06;;;;;;;3.08;1.58;;;;;;;23.63;84.47;99262.34;334824;28;4710;-62
2023/08/15 00:26:18;;;;;;;1.77;1.50;;;;;;;23.63;84.46;99265.84;337625;28;4667;-61
2023/08/15 00:26:30;;;;;;;1.70;1.55;;;;;;;23.61;84.40;99264.31;334185;28;18382;-61
2023/08/15 00:26:42;;;;;;;2.20;1.65;;;;;;;23.61;84.48;99261.66;337866;28;4533;-62
2023/08/15 00:26:54;;;;;;;2.13;1.60;;;;;;;23.60;84.32;99266.09;335257;28;4722;-62
2023/08/15 00:27:06;;;;;;;2.10;1.55;;;;;;;23.59;84.26;99263.63;336675;28;5325;-62
2023/08/15 00:27:18;;;;;;;1.50;1.35;;;;;;;23.57;84.47;99258.44;337703;28;4761;-62
2023/08/15 00:27:31;;;;;;;1.50;1.33;;;;;;;23.55;84.45;99263.06;334065;28;11761;-62
2023/08/15 00:27:43;;;;;;;2.28;1.30;;;;;;;23.52;84.53;99264.19;334935;28;17276;-61
2023/08/15 00:27:55;;;;;;;2.35;1.30;;;;;;;23.52;84.72;99263.34;336445;28;4654;-61
2023/08/15 00:28:07;;;;;;;1.83;1.50;;;;;;;23.49;84.72;99259.16;334644;28;19152;-61
2023/08/15 00:28:19;;;;;;;1.80;1.52;;;;;;;23.47;84.80;99258.47;336211;28;4655;-62
2023/08/15 00:28:31;;;;;;;1.63;1.50;;;;;;;23.44;85.24;99261.41;333566;28;12718;-62
2023/08/15 00:28:43;;;;;;;1.83;1.45;;;;;;;23.45;85.48;99263.06;337072;28;4667;-62
2023/08/15 00:28:55;;;;;;;2.00;1.40;;;;;;;23.45;85.26;99263.06;337382;28;4642;-62
2023/08/15 00:29:07;;;;;;;2.80;1.40;;;;;;;23.44;85.16;99256.13;333859;28;18148;-61
2023/08/15 00:29:19;;;;;;;2.22;1.35;;;;;;;23.44;85.57;99263.22;336365;28;4592;-62
2023/08/15 00:29:31;;;;;;;1.83;1.38;;;;;;;23.43;85.71;99259.72;334486;28;11508;-62
2023/08/15 00:29:43;;;;;;;2.53;1.40;;;;;;;23.43;85.70;99259.72;337670;28;4684;-61
2023/08/15 00:29:55;;;;;;;3.13;1.42;;;;;;;23.44;85.55;99261.41;337061;28;4805;-62
2023/08/15 00:30:07;;;;;;;2.35;1.40;;;;;;;23.43;85.48;99259.72;334731;28;18875;-62
2023/08/15 00:30:19;;;;;;;1.75;1.30;;;;;;;23.44;85.51;99266.72;336720;28;4530;-62
2023/08/15 00:30:32;;;;;;;1.48;1.30;;;;;;;23.44;85.37;99264.06;331711;28;4870;-61
2023/08/15 00:30:45;;;;;;;1.45;1.33;;;;;;;23.45;85.45;99255.13;335043;28;18196;-62
2023/08/15 00:30:57;;;;;;;1.80;1.48;;;;;;;23.44;85.38;99264.06;334928;28;11259;-61
2023/08/15 00:31:09;;;;;;;2.13;1.58;;;;;;;23.45;85.44;99263.06;336355;28;4583;-62
2023/08/15 00:31:21;;;;;;;2.17;1.60;;;;;;;23.45;85.49;99256.94;336243;28;5391;-62
2023/08/15 00:31:33;;;;;;;1.80;1.50;;;;;;;23.46;85.62;99258.59;335040;28;18076;-62
2023/08/15 00:31:45;;;;;;;1.52;1.40;;;;;;;23.45;85.59;99257.78;337293;28;4545;-61
2023/08/15 00:31:57;;;;;;;1.63;1.52;;;;;;;23.42;85.68;99263.38;332143;28;5123;-62
2023/08/15 00:32:09;;;;;;;1.60;1.50;;;;;;;23.44;85.58;99265.88;335989;28;4646;-62
2023/08/15 00:32:21;;;;;;;1.80;1.60;;;;;;;23.41;86.06;99256.38;337444;28;4749;-62
2023/08/15 00:32:35;;;;;;;2.00;1.60;;;;;;;23.43;86.32;99258.91;333807;28;18221;-62
2023/08/15 00:32:48;;;;;;;2.20;1.55;;;;;;;23.42;85.94;99260.72;334489;28;5364;-62
2023/08/15 00:33:00;;;;;;;2.20;1.50;;;;;;;23.43;85.94;99259.72;337574;28;4703;-62
2023/08/15 00:33:13;;;;;;;2.35;1.52;;;;;;;23.44;85.99;99258.75;334453;28;17148;-62
2023/08/15 00:33:24;;;;;;;1.77;1.40;;;;;;;23.44;85.91;99263.22;330488;28;4804;-62
2023/08/15 00:33:36;;;;;;;1.85;1.30;;;;;;;23.43;85.87;99259.72;335633;28;4920;-62
2023/08/15 00:33:48;;;;;;;1.92;1.40;;;;;;;23.43;86.01;99259.72;331549;28;18296;-61
2023/08/15 00:34:01;;;;;;;3.03;1.50;;;;;;;23.43;86.20;99254.41;336806;28;5227;-62
2023/08/15 00:34:12;;;;;;;2.88;1.60;;;;;;;23.43;86.01;99259.72;333630;28;11868;-62
2023/08/15 00:34:24;;;;;;;1.55;1.45;;;;;;;23.44;86.01;99258.75;336269;28;4771;-62
2023/08/15 00:34:36;;;;;;;1.42;1.33;;;;;;;23.44;86.19;99253.47;336580;28;4553;-61
2023/08/15 00:34:48;;;;;;;1.58;1.35;;;;;;;23.44;86.19;99256.13;335097;28;13114;-62
2023/08/15 00:35:04;;;;;;;1.88;1.50;;;;;;;23.45;86.29;99262.25;331978;28;5626;-62
2023/08/15 00:35:16;;;;;;;1.92;1.70;;;;;;;23.43;86.02;99261.56;334155;28;17775;-62
2023/08/15 00:35:28;;;;;;;2.08;1.67;;;;;;;23.42;86.12;99259.88;336387;28;5358;-62
2023/08/15 00:35:42;;;;;;;2.30;1.63;;;;;;;23.42;86.02;99260.72;333786;28;19438;-62
2023/08/15 00:35:54;;;;;;;2.10;1.52;;;;;;;23.42;86.19;99266.03;334608;28;6591;-62
2023/08/15 00:36:07;;;;;;;2.13;1.55;;;;;;;23.42;86.26;99263.38;337180;28;4615;-62
2023/08/15 00:36:19;;;;;;;2.33;1.80;;;;;;;23.42;86.30;99258.06;334920;28;11936;-62
2023/08/15 00:36:31;;;;;;;2.25;1.83;;;;;;;23.44;86.25;99261.41;334143;28;18307;-62
2023/08/15 00:36:43;;;;;;;2.10;1.80;;;;;;;23.44;86.02;99258.75;336916;28;4516;-62
2023/08/15 00:36:54;;;;;;;2.40;1.80;;;;;;;23.45;86.13;99262.25;335203;28;19576;-62
2023/08/15 00:37:06;;;;;;;2.75;2.00;;;;;;;23.45;86.01;99263.06;337562;28;4843;-62
2023/08/15 00:37:18;;;;;;;2.78;2.28;;;;;;;23.45;86.22;99255.13;335273;28;11991;-62
2023/08/15 00:37:31;;;;;;;3.00;2.65;;;;;;;23.47;86.03;99261.13;336791;28;5211;-62
2023/08/15 00:37:43;;;;;;;3.10;2.80;;;;;;;23.48;86.26;99261.94;337027;28;4970;-61
2023/08/15 00:37:56;;;;;;;3.58;3.05;;;;;;;23.46;86.47;99258.59;329848;28;18338;-62
2023/08/15 00:38:08;;;;;;;3.53;3.05;;;;;;;23.48;86.33;99256.63;336188;28;4670;-61
2023/08/15 00:38:20;;;;;;;4.45;3.15;;;;;;;23.50;86.20;99262.63;333866;28;12827;-61
2023/08/15 00:38:32;;;;;;;4.20;3.00;;;;;;;23.51;86.09;99266.97;336085;28;4614;-61
2023/08/15 00:38:44;;;;;;;3.80;2.92;;;;;;;23.51;86.44;99265.16;337089;28;4652;-61
2023/08/15 00:38:56;;;;;;;3.30;3.00;;;;;;;23.52;86.32;99264.19;335182;28;18428;-62
2023/08/15 00:39:08;;;;;;;3.53;3.22;;;;;;;23.55;86.05;99267.53;336371;28;5716;-62
2023/08/15 00:39:20;;;;;;;3.90;3.50;;;;;;;23.57;86.11;99260.28;335598;28;11693;-62
2023/08/15 00:39:32;;;;;;;3.60;3.30;;;;;;;23.57;86.37;99265.59;329200;28;19273;-62
2023/08/15 00:39:44;;;;;;;3.42;3.13;;;;;;;23.57;86.67;99262.94;336752;28;4595;-62
2023/08/15 00:39:56;;;;;;;3.45;2.80;;;;;;;23.58;86.37;99267.25;334368;28;11811;-62
2023/08/15 00:40:08;;;;;;;3.72;2.72;;;;;;;23.58;86.75;99268.06;336448;28;4869;-62
2023/08/15 00:40:20;;;;;;;3.70;2.85;;;;;;;23.60;86.58;99267.94;335998;28;4588;-62
2023/08/15 00:40:32;;;;;;;3.50;2.97;;;;;;;23.62;86.57;99265.97;334559;28;18538;-62
2023/08/15 00:40:44;;;;;;;3.45;2.97;;;;;;;23.60;86.52;99263.47;337893;28;5391;-62
2023/08/15 00:40:56;;;;;;;3.20;2.90;;;;;;;23.60;86.35;99266.09;334057;28;18200;-61
2023/08/15 00:41:09;;;;;;;3.17;2.67;;;;;;;23.62;86.11;99271.28;336991;28;5164;-62
2023/08/15 00:41:21;;;;;;;3.20;2.80;;;;;;;23.63;85.84;99270.31;335789;28;18043;-62
2023/08/15 00:41:33;;;;;;;3.00;2.70;;;;;;;23.62;85.75;99269.47;336534;28;5412;-61
2023/08/15 00:41:45;;;;;;;2.65;2.45;;;;;;;23.64;85.75;99274.63;337385;28;5168;-61
2023/08/15 00:41:57;;;;;;;2.50;2.30;;;;;;;23.65;85.42;99273.66;333816;28;17811;-62
2023/08/15 00:42:09;;;;;;;2.50;2.30;;;;;;;23.64;85.42;99264.88;336446;28;4676;-62
2023/08/15 00:42:21;;;;;;;2.53;2.22;;;;;;;23.65;85.40;99268.34;337526;28;4783;-62
2023/08/15 00:42:33;;;;;;;2.60;2.20;;;;;;;23.65;85.20;99268.34;329575;28;19188;-62
2023/08/15 00:42:45;;;;;;;2.63;2.30;;;;;;;23.65;85.34;99268.34;337797;28;5026;-62
2023/08/15 00:42:57;;;;;;;2.65;2.42;;;;;;;23.64;85.38;99266.66;335008;28;17168;-62
2023/08/15 00:43:14;;;;;;;2.58;2.38;;;;;;;23.65;85.30;99268.34;336461;28;4678;-62
2023/08/15 00:43:26;;;;;;;2.55;1.98;;;;;;;23.62;85.28;99269.47;334567;28;17676;-62
2023/08/15 00:43:38;;;;;;;2.58;1.95;;;;;;;23.62;85.29;99268.63;337799;28;4692;-61
2023/08/15 00:43:50;;;;;;;2.10;1.90;;;;;;;23.62;85.21;99268.63;337560;28;4664;-62
2023/08/15 00:44:03;;;;;;;2.00;1.80;;;;;;;23.60;85.40;99265.28;334484;28;19142;-62
2023/08/15 00:44:15;;;;;;;2.05;1.85;;;;;;;23.58;85.67;99262.75;336029;28;4669;-62
2023/08/15 00:44:27;;;;;;;2.45;2.00;;;;;;;23.56;85.67;99269.19;335189;28;5237;-62
2023/08/15 00:44:42;;;;;;;2.70;2.08;;;;;;;23.53;86.14;99273.81;337888;28;5169;-62
2023/08/15 00:44:54;;;;;;;2.75;1.80;;;;;;;23.53;86.19;99268.50;334077;28;17953;-62
2023/08/15 00:45:07;;;;;;;3.25;1.90;;;;;;;23.50;86.61;99266.16;336013;28;4657;-62
2023/08/15 00:45:19;;;;;;;3.40;2.00;;;;;;;23.49;86.65;99266.28;334296;28;19051;-62
2023/08/15 00:45:32;;;;;;;2.38;2.03;;;;;;;23.48;86.30;99262.81;332491;28;5499;-62
2023/08/15 00:45:44;;;;;;;2.10;1.90;;;;;;;23.50;86.07;99268.81;333638;28;18343;-62
2023/08/15 00:45:59;;;;;;;2.10;1.90;;;;;;;23.51;86.07;99267.81;337247;28;5382;-65
2023/08/15 00:46:11;;;;;;;2.22;2.00;;;;;;;23.52;85.85;99273.94;333759;28;17880;-62
2023/08/15 00:46:25;;;;;;;2.60;1.90;;;;;;;23.52;85.97;99269.50;333699;28;11358;-62
2023/08/15 00:46:38;;;;;;;2.20;1.77;;;;;;;23.52;86.00;99268.63;336019;28;4588;-62
2023/08/15 00:46:50;;;;;;;2.00;1.80;;;;;;;23.53;86.06;99265.84;334833;28;19305;-62
2023/08/15 00:47:02;;;;;;;2.20;1.80;;;;;;;23.51;86.05;99262.50;332478;28;5904;-61
2023/08/15 00:47:14;;;;;;;2.00;1.80;;;;;;;23.50;86.02;99263.50;334183;28;18235;-62
2023/08/15 00:47:27;;;;;;;2.42;1.75;;;;;;;23.50;86.42;99268.81;336480;28;4672;-62
2023/08/15 00:47:39;;;;;;;2.83;1.98;;;;;;;23.52;86.29;99263.34;333903;28;16307;-62
2023/08/15 00:47:51;;;;;;;2.88;1.90;;;;;;;23.52;86.16;99266.00;336895;28;5169;-62
2023/08/15 00:48:06;;;;;;;2.40;1.83;;;;;;;23.53;86.38;99263.19;334884;28;6312;-62
2023/08/15 00:48:19;;;;;;;3.25;1.80;;;;;;;23.53;86.07;99259.72;336709;28;5325;-61
2023/08/15 00:48:32;;;;;;;3.22;1.75;;;;;;;23.53;86.09;99259.72;334854;28;17219;-62
2023/08/15 00:48:45;;;;;;;2.50;1.90;;;;;;;23.54;86.06;99266.69;334334;28;4535;-62
2023/08/15 00:48:58;;;;;;;2.15;1.83;;;;;;;23.55;86.03;99256.94;336171;28;18880;-62
2023/08/15 00:49:10;;;;;;;2.05;1.80;;;;;;;23.55;85.97;99252.44;334312;28;11827;-62
2023/08/15 00:49:22;;;;;;;2.00;1.80;;;;;;;23.55;86.14;99256.94;336190;28;4696;-62
2023/08/15 00:49:34;;;;;;;2.25;1.92;;;;;;;23.56;86.05;99255.94;337771;28;4646;-62
2023/08/15 00:49:46;;;;;;;2.35;1.95;;;;;;;23.56;86.05;99255.94;334769;28;18246;-62
2023/08/15 00:49:59;;;;;;;2.13;1.77;;;;;;;23.57;85.96;99254.97;332748;28;4822;-62
2023/08/15 00:50:12;;;;;;;1.92;1.70;;;;;;;23.57;85.98;99260.28;333521;28;15416;-62
2023/08/15 00:50:24;;;;;;;2.25;1.90;;;;;;;23.58;85.86;99257.44;337009;28;4639;-62
2023/08/15 00:50:38;;;;;;;2.38;1.90;;;;;;;23.59;86.04;99260.97;329664;28;18149;-62
2023/08/15 00:50:50;;;;;;;1.92;1.65;;;;;;;23.61;85.82;99259.00;335075;28;17225;-61
2023/08/15 00:51:02;;;;;;;1.70;1.60;;;;;;;23.62;85.76;99261.50;337216;28;4647;-62
2023/08/15 00:51:16;;;;;;;1.80;1.70;;;;;;;23.63;85.92;99259.69;337993;28;4598;-62
2023/08/15 00:51:28;;;;;;;3.58;1.92;;;;;;;23.62;85.96;99258.00;334374;28;19031;-61
2023/08/15 00:51:40;;;;;;;3.53;2.00;;;;;;;23.62;85.66;99260.66;332375;28;4812;-62
2023/08/15 00:51:53;;;;;;;2.25;1.95;;;;;;;23.62;85.78;99258.00;335485;28;18279;-61
2023/08/15 00:52:06;;;;;;;2.10;1.90;;;;;;;23.62;85.50;99252.72;337168;28;5292;-62
2023/08/15 00:52:18;;;;;;;2.10;1.90;;;;;;;23.63;85.77;99254.41;333998;28;17581;-62
2023/08/15 00:52:30;;;;;;;2.08;1.77;;;;;;;23.63;85.91;99254.41;336995;28;5476;-62
2023/08/15 00:52:42;;;;;;;1.85;1.63;;;;;;;23.61;85.92;99259.84;334378;28;15886;-62
2023/08/15 00:52:55;;;;;;;1.73;1.63;;;;;;;23.62;86.07;99260.66;337024;28;4524;-62
2023/08/15 00:53:07;;;;;;;2.03;1.80;;;;;;;23.62;85.96;99258.00;333007;28;12464;-62
2023/08/15 00:53:19;;;;;;;2.20;2.00;;;;;;;23.62;86.07;99253.53;334643;28;17311;-62
2023/08/15 00:53:34;;;;;;;2.08;1.88;;;;;;;23.62;86.01;99252.72;335730;28;8192;-62
2023/08/15 00:53:47;;;;;;;1.95;1.75;;;;;;;23.61;85.83;99257.19;337160;28;4740;-62
2023/08/15 00:54:00;;;;;;;2.10;1.73;;;;;;;23.62;85.81;99258.00;334022;28;18038;-62
2023/08/15 00:54:12;;;;;;;2.30;1.70;;;;;;;23.62;85.79;99253.53;333872;28;12767;-62
2023/08/15 00:54:24;;;;;;;3.40;1.90;;;;;;;23.62;85.77;99256.19;337656;28;5500;-62
2023/08/15 00:54:37;;;;;;;2.97;1.88;;;;;;;23.63;85.80;99249.09;337026;28;4777;-61
2023/08/15 00:54:50;;;;;;;2.20;1.80;;;;;;;23.64;85.76;99256.06;330449;28;18208;-62
2023/08/15 00:55:03;;;;;;;1.90;1.80;;;;;;;23.65;85.54;99252.44;337829;28;4698;-62
2023/08/15 00:55:17;;;;;;;2.10;1.90;;;;;;;23.65;85.59;99253.25;334719;28;18321;-61
2023/08/15 00:55:30;;;;;;;2.57;1.80;;;;;;;23.66;85.51;99259.41;333953;28;18253;-62
2023/08/15 00:55:44;;;;;;;2.70;1.75;;;;;;;23.66;85.51;99248.78;336956;28;4693;-62
2023/08/15 00:55:57;;;;;;;2.72;1.73;;;;;;;23.68;85.52;99253.00;334462;28;16638;-62
2023/08/15 00:56:10;;;;;;;2.08;1.70;;;;;;;23.67;85.59;99250.47;329422;28;17790;-62
2023/08/15 00:56:22;;;;;;;2.40;1.60;;;;;;;23.68;85.47;99257.44;336874;28;5284;-62
2023/08/15 00:56:35;;;;;;;3.03;1.80;;;;;;;23.67;85.47;99255.78;334756;28;18535;-62
2023/08/15 00:56:47;;;;;;;3.13;1.83;;;;;;;23.68;85.42;99244.16;337328;28;4722;-62
2023/08/15 00:56:59;;;;;;;2.28;1.70;;;;;;;23.69;85.53;99245.84;335271;28;19266;-62
2023/08/15 00:57:11;;;;;;;2.05;1.80;;;;;;;23.68;85.32;99254.78;336443;28;4536;-62
2023/08/15 00:57:23;;;;;;;2.13;1.92;;;;;;;23.65;85.92;99252.44;336339;28;18425;-62
2023/08/15 00:57:36;;;;;;;2.33;1.90;;;;;;;23.65;85.88;99247.13;333068;28;17935;-62
2023/08/15 00:57:48;;;;;;;2.53;1.80;;;;;;;23.66;85.82;99243.47;332473;28;7472;-62
2023/08/15 00:58:00;;;;;;;2.03;1.70;;;;;;;23.64;85.79;99248.09;333940;28;18154;-62
2023/08/15 00:58:12;;;;;;;2.80;1.90;;;;;;;23.64;85.68;99251.59;337421;28;4741;-62
2023/08/15 00:58:24;;;;;;;3.55;1.88;;;;;;;23.65;85.79;99242.66;334777;28;17113;-62
2023/08/15 00:58:37;;;;;;;2.92;1.80;;;;;;;23.66;85.71;99251.44;336202;28;4677;-62
2023/08/15 00:58:49;;;;;;;3.08;1.80;;;;;;;23.65;85.92;99247.97;334205;28;5919;-62
2023/08/15 00:59:02;;;;;;;2.70;1.70;;;;;;;23.66;85.91;99251.44;336421;28;4812;-62